Time;durP1;ratioP1;P1;durP2;ratioP2;P2;SDS_P1;SDS_P2;PMS_P1;PMS_P2;Temp;Humidity;BMP_temperature;BMP_pressure;BME280_temperature;BME280_humidity;BME280_pressure;Samples;Min_cycle;Max_cycle;Signal;HPM_P1;HPM_P2
2022/12/21 00:01:23;;;;;;;14.00;8.10;;;8.40;99.90;;;;;;7391358;19;20130;-82
2022/12/21 00:03:54;;;;;;;13.93;7.83;;;8.30;99.90;;;;;;7391861;19;20155;-84
2022/12/21 00:06:21;;;;;;;11.77;8.40;;;8.50;99.90;;;;;;7391601;19;20247;-86
2022/12/21 00:08:49;;;;;;;15.13;8.30;;;8.30;99.90;;;;;;7393133;19;20634;-85
2022/12/21 00:11:15;;;;;;;13.20;8.70;;;8.40;99.90;;;;;;7391205;19;20131;-84
2022/12/21 00:13:42;;;;;;;11.63;8.70;;;8.40;99.90;;;;;;7392104;19;20183;-85
2022/12/21 00:16:11;;;;;;;11.80;7.80;;;8.40;99.90;;;;;;7390746;19;20206;-86
2022/12/21 00:18:37;;;;;;;10.97;7.97;;;8.40;99.90;;;;;;7392828;19;20155;-84
2022/12/21 00:21:03;;;;;;;15.27;9.20;;;8.30;99.90;;;;;;7393434;19;20148;-86
2022/12/21 00:23:30;;;;;;;16.87;8.47;;;8.40;99.90;;;;;;7400036;19;20143;-84
2022/12/21 00:25:58;;;;;;;16.43;8.10;;;8.20;99.90;;;;;;7397011;19;20146;-85
2022/12/21 00:28:24;;;;;;;14.00;7.83;;;8.10;99.90;;;;;;7400046;19;20930;-85
2022/12/21 00:30:50;;;;;;;14.77;8.97;;;8.20;99.90;;;;;;7401009;19;20193;-83
2022/12/21 00:33:16;;;;;;;14.23;8.97;;;8.40;99.90;;;;;;7397641;19;20138;-84
2022/12/21 00:35:50;;;;;;;18.67;9.13;;;8.30;99.90;;;;;;7398336;19;20517;-86
2022/12/21 00:38:16;;;;;;;14.73;9.50;;;8.40;99.90;;;;;;7398340;19;20150;-86
2022/12/21 00:40:43;;;;;;;13.77;9.50;;;8.40;99.90;;;;;;7397569;19;20594;-86
2022/12/21 00:43:08;;;;;;;16.30;8.73;;;8.40;99.90;;;;;;7400099;19;20139;-83
2022/12/21 00:45:34;;;;;;;11.97;7.53;;;8.40;99.90;;;;;;7399055;19;20134;-85
2022/12/21 00:48:00;;;;;;;12.73;8.40;;;8.60;99.90;;;;;;7398937;19;20139;-85
2022/12/21 00:50:26;;;;;;;10.13;6.90;;;8.40;99.90;;;;;;7400718;19;20130;-83
2022/12/21 00:52:52;;;;;;;10.97;7.10;;;8.40;99.90;;;;;;7399574;19;20599;-85
2022/12/21 00:55:19;;;;;;;11.30;6.77;;;8.40;99.90;;;;;;7399068;19;20152;-86
2022/12/21 00:57:45;;;;;;;10.50;6.83;;;8.40;99.90;;;;;;7397119;19;20151;-85
2022/12/21 01:00:12;;;;;;;16.90;7.70;;;8.40;99.90;;;;;;7398039;19;20134;-86
2022/12/21 01:02:38;;;;;;;8.60;6.37;;;8.50;99.90;;;;;;7398789;19;20545;-85
2022/12/21 01:05:04;;;;;;;8.77;5.33;;;8.40;99.90;;;;;;7398828;19;20150;-85
2022/12/21 01:07:30;;;;;;;11.23;6.47;;;8.50;99.90;;;;;;7400536;19;20138;-85
2022/12/21 01:09:55;;;;;;;8.30;4.60;;;8.50;99.90;;;;;;7398982;19;20226;-84
2022/12/21 01:12:21;;;;;;;6.27;3.33;;;8.60;99.90;;;;;;7397458;19;20663;-82
2022/12/21 01:14:47;;;;;;;4.97;3.00;;;8.60;99.90;;;;;;7398328;19;20206;-81
2022/12/21 01:17:14;;;;;;;8.03;3.87;;;8.60;99.90;;;;;;7399781;19;20142;-85
2022/12/21 01:19:41;;;;;;;6.73;4.47;;;8.70;99.90;;;;;;7397648;19;20158;-85
2022/12/21 01:22:06;;;;;;;5.87;3.67;;;8.70;99.90;;;;;;7396838;19;20147;-85
2022/12/21 01:24:33;;;;;;;7.20;3.90;;;8.70;99.90;;;;;;7398489;19;20171;-86
2022/12/21 01:26:59;;;;;;;6.90;3.90;;;8.80;99.90;;;;;;7396799;19;20143;-81
2022/12/21 01:29:25;;;;;;;7.90;5.33;;;8.80;99.90;;;;;;7397987;19;20238;-86
2022/12/21 01:31:50;;;;;;;8.40;6.60;;;8.80;99.90;;;;;;7394252;19;20654;-87
2022/12/21 01:34:16;;;;;;;9.10;6.80;;;9.00;99.90;;;;;;7396815;19;20135;-85
2022/12/21 01:36:42;;;;;;;12.57;7.07;;;9.10;99.90;;;;;;7395354;19;20131;-85
2022/12/21 01:39:08;;;;;;;11.87;7.60;;;9.00;99.90;;;;;;7396689;19;20162;-84
2022/12/21 01:41:33;;;;;;;12.83;7.50;;;9.00;99.90;;;;;;7394707;19;20134;-85
2022/12/21 01:44:02;;;;;;;10.27;7.67;;;9.20;99.90;;;;;;7394380;19;20150;-81
2022/12/21 01:46:31;;;;;;;17.50;8.80;;;9.00;99.90;;;;;;7394124;19;20595;-86
2022/12/21 01:49:12;;;;;;;13.83;8.23;;;8.90;99.90;;;;;;7396627;19;20139;-87
2022/12/21 01:51:40;;;;;;;12.30;8.33;;;8.80;99.90;;;;;;7396913;19;20139;-87
2022/12/21 01:54:22;;;;;;;14.17;8.90;;;8.80;99.90;;;;;;7395842;19;20139;-85
2022/12/21 01:56:52;;;;;;;11.73;7.97;;;8.70;99.90;;;;;;7393201;19;20135;-82
2022/12/21 01:59:50;;;;;;;12.27;7.47;;;8.70;99.90;;;;;;7393265;19;20137;-82
2022/12/21 02:02:22;;;;;;;11.47;7.30;;;8.60;99.90;;;;;;7395603;19;20328;-75
2022/12/21 02:04:51;;;;;;;10.93;7.53;;;8.70;99.90;;;;;;7393721;19;20150;-74
2022/12/21 02:07:18;;;;;;;11.93;7.80;;;8.70;99.90;;;;;;7396475;19;20595;-74
2022/12/21 02:09:46;;;;;;;11.40;6.57;;;8.60;99.90;;;;;;7396758;19;20610;-75
2022/12/21 02:12:15;;;;;;;11.93;7.00;;;8.70;99.90;;;;;;7393870;19;20388;-73
2022/12/21 02:14:44;;;;;;;11.40;7.50;;;8.70;99.90;;;;;;7394596;19;20130;-74
2022/12/21 02:17:55;;;;;;;11.53;7.30;;;8.70;99.90;;;;;;7395431;19;20138;-75
2022/12/21 02:20:54;;;;;;;6.57;5.37;;;8.80;99.90;;;;;;7391451;19;20765;-75
2022/12/21 02:23:38;;;;;;;8.97;5.97;;;8.80;99.90;;;;;;7390309;19;20143;-75
2022/12/21 02:26:28;;;;;;;9.17;4.37;;;8.80;99.90;;;;;;7389436;19;20146;-78
2022/12/21 02:29:18;;;;;;;4.23;2.80;;;9.00;99.90;;;;;;7394756;19;20150;-74
2022/12/21 02:31:47;;;;;;;6.17;3.93;;;9.10;99.90;;;;;;7394819;19;20591;-73
2022/12/21 02:34:28;;;;;;;5.87;3.63;;;9.20;99.90;;;;;;7395921;19;20142;-75
2022/12/21 02:37:06;;;;;;;5.80;3.17;;;9.20;99.90;;;;;;7394007;19;20143;-74
2022/12/21 02:39:53;;;;;;;5.37;3.93;;;9.20;99.90;;;;;;7393058;19;20154;-75
2022/12/21 02:45:21;;;;;;;6.30;2.33;;;9.20;99.90;;;;;;7394722;19;20147;-75
2022/12/21 02:48:17;;;;;;;4.63;2.17;;;9.30;99.90;;;;;;7394335;19;20142;-74
2022/12/21 02:50:48;;;;;;;3.50;2.10;;;9.50;99.90;;;;;;7394535;19;20146;-74
2022/12/21 02:53:22;;;;;;;2.93;2.30;;;9.50;99.90;;;;;;7392784;19;20515;-74
2022/12/21 02:55:48;;;;;;;2.47;1.83;;;9.60;99.90;;;;;;7393446;19;20150;-75
2022/12/21 02:58:19;;;;;;;6.00;2.50;;;9.70;99.90;;;;;;7395147;19;20139;-75
2022/12/21 03:01:11;;;;;;;2.30;1.87;;;9.70;99.90;;;;;;7393920;19;20603;-74
2022/12/21 03:03:48;;;;;;;6.80;2.33;;;9.90;99.90;;;;;;7390084;19;20178;-73
2022/12/21 03:06:34;;;;;;;3.13;2.10;;;9.90;99.90;;;;;;7393439;19;20138;-73
2022/12/21 03:09:26;;;;;;;4.90;2.03;;;9.90;99.90;;;;;;7393926;19;20146;-74
2022/12/21 03:11:55;;;;;;;5.90;2.10;;;9.90;99.90;;;;;;7388716;19;20142;-75
2022/12/21 03:14:42;;;;;;;3.97;1.60;;;9.70;99.90;;;;;;7395547;19;20173;-75
2022/12/21 03:17:46;;;;;;;4.77;1.70;;;9.80;99.90;;;;;;7394621;19;20239;-74
2022/12/21 03:20:37;;;;;;;3.50;2.03;;;9.80;99.90;;;;;;7392645;19;20218;-73
2022/12/21 03:23:14;;;;;;;3.30;1.73;;;9.90;99.90;;;;;;7390516;19;20162;-74
2022/12/21 03:26:04;;;;;;;1.90;1.43;;;9.80;99.90;;;;;;7391132;19;20138;-75
2022/12/21 03:28:33;;;;;;;1.90;1.70;;;9.80;99.90;;;;;;7392402;19;20142;-76
2022/12/21 03:31:05;;;;;;;3.37;1.70;;;9.90;99.90;;;;;;7393972;19;20131;-74
2022/12/21 03:33:37;;;;;;;4.07;1.70;;;9.90;99.90;;;;;;7392022;19;20142;-74
2022/12/21 03:36:06;;;;;;;6.47;1.97;;;9.90;99.90;;;;;;7393087;19;20134;-74
2022/12/21 03:38:36;;;;;;;4.10;2.17;;;9.90;99.90;;;;;;7393926;19;20139;-75
2022/12/21 03:41:09;;;;;;;3.80;1.90;;;10.00;99.90;;;;;;7391353;19;20134;-75
2022/12/21 03:43:36;;;;;;;3.10;1.50;;;9.90;99.90;;;;;;7392636;19;20141;-73
2022/12/21 03:46:11;;;;;;;6.93;2.20;;;9.90;99.90;;;;;;7390815;19;20137;-75
2022/12/21 03:48:51;;;;;;;6.33;1.90;;;10.00;99.90;;;;;;7393108;19;20148;-74
2022/12/21 03:51:32;;;;;;;3.73;2.03;;;10.00;99.90;;;;;;7389415;19;20675;-74
2022/12/21 03:54:27;;;;;;;3.93;2.23;;;9.90;99.90;;;;;;7390295;19;20468;-75
2022/12/21 03:56:55;;;;;;;2.37;1.67;;;9.90;99.90;;;;;;7398095;19;20594;-75
2022/12/21 03:59:21;;;;;;;5.80;1.60;;;10.00;99.90;;;;;;7401388;19;20138;-76
2022/12/21 04:02:24;;;;;;;3.43;2.10;;;10.00;99.90;;;;;;7399053;19;20167;-75
2022/12/21 04:05:14;;;;;;;4.63;1.90;;;9.90;99.90;;;;;;7398069;19;20146;-75
2022/12/21 04:07:41;;;;;;;3.83;1.73;;;9.90;99.90;;;;;;7398948;19;20143;-75
2022/12/21 04:10:13;;;;;;;5.60;2.00;;;9.90;99.90;;;;;;7402388;19;20127;-74
2022/12/21 04:12:39;;;;;;;6.07;1.70;;;9.90;99.90;;;;;;7398464;19;20138;-75
2022/12/21 04:15:17;;;;;;;6.30;1.77;;;9.80;99.90;;;;;;7398360;19;20210;-74
2022/12/21 04:17:45;;;;;;;3.07;1.93;;;9.80;99.90;;;;;;7398621;19;20218;-75
2022/12/21 04:20:15;;;;;;;3.80;1.93;;;9.70;99.90;;;;;;7401486;19;20131;-74
2022/12/21 04:28:16;;;;;;;4.63;2.03;;;9.80;99.90;;;;;;7398862;19;20147;-74
2022/12/21 04:30:44;;;;;;;2.50;1.50;;;9.70;99.90;;;;;;7398035;19;20163;-74
2022/12/21 04:33:12;;;;;;;3.17;1.87;;;9.80;99.90;;;;;;7397888;19;20142;-75
2022/12/21 04:37:30;;;;;;;5.47;2.17;;;9.70;99.90;;;;;;7398792;19;20141;-75
2022/12/21 04:38:28;;;;;;;2.67;1.73;;;9.70;99.90;;;;;;7399431;19;20142;-74
2022/12/21 04:40:54;;;;;;;3.20;1.63;;;9.70;99.90;;;;;;7398718;19;20158;-74
2022/12/21 04:43:21;;;;;;;3.97;2.03;;;9.70;99.90;;;;;;7397858;19;20151;-75
2022/12/21 04:45:47;;;;;;;2.47;1.70;;;9.70;99.90;;;;;;7397553;19;20135;-77
2022/12/21 04:48:14;;;;;;;2.90;1.80;;;9.90;99.90;;;;;;7399382;19;20177;-78
2022/12/21 04:50:40;;;;;;;2.93;1.77;;;9.70;99.90;;;;;;7399402;19;20134;-74
2022/12/21 04:53:06;;;;;;;2.40;1.70;;;9.70;99.90;;;;;;7397161;19;20139;-74
2022/12/21 04:55:32;;;;;;;2.27;1.50;;;9.70;99.90;;;;;;7397565;19;20146;-75
2022/12/21 04:57:58;;;;;;;1.93;1.73;;;9.70;99.90;;;;;;7398277;19;20258;-75
2022/12/21 05:00:24;;;;;;;3.03;1.50;;;9.60;99.90;;;;;;7397407;19;20131;-74
2022/12/21 05:02:50;;;;;;;1.87;1.60;;;9.70;99.90;;;;;;7399355;19;20119;-75
2022/12/21 05:05:16;;;;;;;2.80;1.60;;;9.80;99.90;;;;;;7397872;19;20151;-74
2022/12/21 05:07:42;;;;;;;3.87;1.83;;;9.80;99.90;;;;;;7394773;19;20181;-74
2022/12/21 05:10:11;;;;;;;5.03;1.57;;;9.90;99.90;;;;;;7397643;19;20595;-75
2022/12/21 05:12:37;;;;;;;3.03;1.63;;;9.90;99.90;;;;;;7398351;19;20183;-73
2022/12/21 05:15:03;;;;;;;4.97;2.03;;;9.90;99.90;;;;;;7397752;19;20139;-74
2022/12/21 05:17:29;;;;;;;3.10;1.83;;;10.00;99.90;;;;;;7397565;19;20238;-74
2022/12/21 05:19:55;;;;;;;4.47;2.07;;;9.90;99.90;;;;;;7395868;19;20579;-75
2022/12/21 05:22:20;;;;;;;4.10;2.07;;;10.00;99.90;;;;;;7394827;19;20229;-75
2022/12/21 05:24:46;;;;;;;6.47;1.97;;;10.00;99.90;;;;;;7396718;19;20130;-74
2022/12/21 05:27:13;;;;;;;3.57;2.00;;;9.90;99.90;;;;;;7398731;19;20146;-74
2022/12/21 05:29:39;;;;;;;3.17;1.97;;;9.90;99.90;;;;;;7397613;19;20263;-74
2022/12/21 05:32:05;;;;;;;6.63;2.13;;;9.90;99.90;;;;;;7397600;19;20151;-74
2022/12/21 05:34:30;;;;;;;4.27;2.13;;;9.80;99.90;;;;;;7397039;19;20159;-75
2022/12/21 05:36:56;;;;;;;3.63;2.23;;;9.90;99.90;;;;;;7396404;19;20587;-74
2022/12/21 05:39:22;;;;;;;4.53;2.30;;;9.90;99.90;;;;;;7397084;19;20135;-75
2022/12/21 05:41:48;;;;;;;4.07;2.27;;;9.90;99.90;;;;;;7395455;19;20139;-74
2022/12/21 05:44:13;;;;;;;3.70;1.90;;;10.10;99.90;;;;;;7393844;19;20473;-74
2022/12/21 05:46:39;;;;;;;3.80;2.10;;;9.90;99.90;;;;;;7395290;19;20150;-74
2022/12/21 05:49:05;;;;;;;5.33;2.07;;;9.90;99.90;;;;;;7395919;19;20139;-74
2022/12/21 05:51:30;;;;;;;6.63;2.70;;;9.90;99.90;;;;;;7395376;19;20142;-73
2022/12/21 05:53:56;;;;;;;7.60;2.67;;;10.00;99.90;;;;;;7394306;19;20131;-74
2022/12/21 05:56:23;;;;;;;4.90;2.83;;;10.10;99.90;;;;;;7397240;19;20176;-73
2022/12/21 05:58:49;;;;;;;4.20;2.87;;;10.20;99.90;;;;;;7395668;19;20161;-74
2022/12/21 06:01:15;;;;;;;8.90;3.23;;;10.20;99.90;;;;;;7395765;19;20252;-73
2022/12/21 06:03:44;;;;;;;7.17;3.30;;;10.00;99.90;;;;;;7394217;19;20202;-73
2022/12/21 06:06:13;;;;;;;7.60;3.47;;;10.00;99.90;;;;;;7394179;19;20130;-74
2022/12/21 06:08:39;;;;;;;7.20;4.03;;;10.00;99.90;;;;;;7396188;19;20174;-73
2022/12/21 06:11:13;;;;;;;9.07;3.60;;;9.80;99.90;;;;;;7395402;19;20151;-73
2022/12/21 06:13:39;;;;;;;7.43;3.90;;;9.90;99.90;;;;;;7394843;19;20146;-75
2022/12/21 06:16:08;;;;;;;8.60;4.30;;;9.90;99.90;;;;;;7395953;19;20170;-74
2022/12/21 06:18:34;;;;;;;6.77;3.70;;;9.90;99.90;;;;;;7396399;19;20142;-74
2022/12/21 06:21:01;;;;;;;8.27;3.53;;;9.70;99.90;;;;;;7395216;19;20138;-75
2022/12/21 06:23:26;;;;;;;5.43;4.00;;;9.70;99.90;;;;;;7395040;19;20520;-74
2022/12/21 06:26:00;;;;;;;5.60;4.10;;;9.60;99.90;;;;;;7394611;19;20181;-77
2022/12/21 06:28:27;;;;;;;6.13;4.07;;;9.60;99.90;;;;;;7396289;19;20146;-74
2022/12/21 06:30:53;;;;;;;5.70;4.10;;;9.80;99.90;;;;;;7394907;19;20143;-74
2022/12/21 06:33:21;;;;;;;6.47;3.90;;;9.70;99.90;;;;;;7394007;19;20153;-75
2022/12/21 06:35:52;;;;;;;8.07;4.33;;;9.70;99.90;;;;;;7395129;19;20138;-76
2022/12/21 06:38:18;;;;;;;9.37;4.13;;;9.50;99.90;;;;;;7395490;19;20123;-75
2022/12/21 06:40:44;;;;;;;7.80;3.53;;;9.60;99.90;;;;;;7395462;19;20146;-75
2022/12/21 06:43:10;;;;;;;5.93;3.00;;;9.60;99.90;;;;;;7395010;19;20122;-75
2022/12/21 06:45:36;;;;;;;8.43;3.67;;;9.70;99.90;;;;;;7394415;19;20158;-75
2022/12/21 06:48:02;;;;;;;6.90;3.80;;;9.80;99.90;;;;;;7395569;19;20135;-76
2022/12/21 06:50:28;;;;;;;5.93;2.40;;;9.90;99.90;;;;;;7395387;19;20125;-76
2022/12/21 06:52:53;;;;;;;5.67;2.60;;;9.60;99.90;;;;;;7392972;19;20142;-76
2022/12/21 06:55:19;;;;;;;5.30;2.23;;;9.70;99.90;;;;;;7395325;19;20155;-75
2022/12/21 06:57:45;;;;;;;8.67;1.73;;;9.80;99.90;;;;;;7393473;19;20217;-75
2022/12/21 07:00:11;;;;;;;4.20;1.83;;;9.90;99.90;;;;;;7393209;19;20474;-76
2022/12/21 07:02:37;;;;;;;4.13;1.67;;;9.90;99.90;;;;;;7391388;19;20153;-76
2022/12/21 07:05:03;;;;;;;3.57;1.63;;;10.00;99.90;;;;;;7392008;19;20143;-76
2022/12/21 07:07:28;;;;;;;4.83;1.83;;;10.10;99.90;;;;;;7390290;19;20162;-77
2022/12/21 07:09:54;;;;;;;2.50;1.70;;;10.10;99.90;;;;;;7393525;19;20151;-76
2022/12/21 07:12:20;;;;;;;5.80;3.20;;;10.00;99.90;;;;;;7391036;19;20153;-75
2022/12/21 07:14:46;;;;;;;3.83;1.93;;;10.10;99.90;;;;;;7391796;19;20456;-75
2022/12/21 07:17:11;;;;;;;3.77;1.80;;;10.00;99.90;;;;;;7390331;19;20186;-76
2022/12/21 07:19:37;;;;;;;3.70;1.97;;;10.10;99.90;;;;;;7390778;19;20605;-76
2022/12/21 07:22:03;;;;;;;16.43;8.30;;;10.10;99.90;;;;;;7391470;19;20137;-76
2022/12/21 07:24:28;;;;;;;10.27;6.47;;;10.10;99.90;;;;;;7391154;19;20182;-76
2022/12/21 07:26:54;;;;;;;15.53;9.57;;;10.10;99.90;;;;;;7389880;19;20143;-73
2022/12/21 07:29:20;;;;;;;4.70;2.80;;;10.10;99.90;;;;;;7390901;19;20580;-74
2022/12/21 07:31:46;;;;;;;3.43;1.73;;;10.10;99.90;;;;;;7396169;19;20134;-74
2022/12/21 07:34:12;;;;;;;3.10;2.47;;;10.10;99.90;;;;;;7399014;19;20928;-75
2022/12/21 07:36:38;;;;;;;4.27;1.80;;;10.10;99.90;;;;;;7401183;19;20138;-75
2022/12/21 07:39:04;;;;;;;3.50;1.73;;;10.20;99.90;;;;;;7401249;19;20138;-75
2022/12/21 07:41:30;;;;;;;2.53;1.50;;;10.20;99.90;;;;;;7398045;19;20123;-75
2022/12/21 07:43:56;;;;;;;3.50;1.70;;;10.10;99.90;;;;;;7397272;19;20154;-75
2022/12/21 07:46:23;;;;;;;4.07;2.10;;;10.20;99.90;;;;;;7395594;19;20159;-74
2022/12/21 07:48:49;;;;;;;4.47;1.70;;;10.30;99.90;;;;;;7397098;19;20190;-76
2022/12/21 07:51:15;;;;;;;6.97;2.00;;;10.30;99.90;;;;;;7397911;19;20796;-76
2022/12/21 07:53:41;;;;;;;4.10;1.57;;;10.30;99.90;;;;;;7397424;19;20138;-76
2022/12/21 07:56:18;;;;;;;4.07;1.40;;;10.20;99.90;;;;;;7398191;19;20262;-76
2022/12/21 07:58:44;;;;;;;5.90;2.53;;;10.20;99.90;;;;;;7396479;19;20143;-75
2022/12/21 08:01:16;;;;;;;4.60;2.73;;;10.20;99.90;;;;;;7394383;19;20143;-76
2022/12/21 08:03:44;;;;;;;4.47;1.93;;;10.20;99.90;;;;;;7392994;19;20189;-75
2022/12/21 08:06:14;;;;;;;3.30;1.73;;;10.30;99.90;;;;;;7395764;19;20142;-76
2022/12/21 08:08:44;;;;;;;2.80;1.53;;;10.30;99.90;;;;;;7398664;19;20142;-75
2022/12/21 08:11:17;;;;;;;2.03;1.73;;;10.20;99.90;;;;;;7397899;19;20138;-75
2022/12/21 08:13:45;;;;;;;4.30;2.70;;;10.30;99.90;;;;;;7399084;19;20131;-74
2022/12/21 08:16:17;;;;;;;2.90;1.50;;;10.30;99.90;;;;;;7397695;19;20160;-76
2022/12/21 08:18:43;;;;;;;4.47;1.47;;;10.30;99.90;;;;;;7398561;19;20138;-75
2022/12/21 08:21:09;;;;;;;3.67;1.57;;;10.30;99.90;;;;;;7396947;19;20138;-75
2022/12/21 08:23:35;;;;;;;3.07;1.40;;;10.30;99.90;;;;;;7397202;19;20143;-74
2022/12/21 08:26:06;;;;;;;2.87;1.63;;;10.30;99.90;;;;;;7395291;19;20588;-77
2022/12/21 08:28:32;;;;;;;8.27;2.17;;;10.30;99.90;;;;;;7397239;19;20139;-75
2022/12/21 08:31:07;;;;;;;5.30;2.23;;;10.20;99.90;;;;;;7394903;19;20490;-76
2022/12/21 08:33:33;;;;;;;4.53;1.70;;;10.30;99.90;;;;;;7397000;19;20138;-75
2022/12/21 08:35:58;;;;;;;5.30;1.80;;;10.20;99.90;;;;;;7395952;19;20134;-74
2022/12/21 08:38:25;;;;;;;2.93;1.40;;;10.30;99.90;;;;;;7395194;19;20515;-74
2022/12/21 08:40:51;;;;;;;6.37;2.10;;;10.30;99.90;;;;;;7394969;19;20139;-75
2022/12/21 08:43:18;;;;;;;6.60;2.47;;;10.30;99.90;;;;;;7392704;19;20171;-75
2022/12/21 08:45:44;;;;;;;2.67;1.77;;;10.30;99.90;;;;;;7394012;19;20159;-74
2022/12/21 08:48:11;;;;;;;3.77;2.30;;;10.30;99.90;;;;;;7395115;19;20517;-74
2022/12/21 08:50:37;;;;;;;4.43;2.30;;;10.30;99.90;;;;;;7397087;19;20607;-75
2022/12/21 08:53:03;;;;;;;3.73;2.27;;;10.30;99.90;;;;;;7396802;19;20146;-74
2022/12/21 08:55:30;;;;;;;3.57;2.17;;;10.30;99.90;;;;;;7395800;19;20146;-74
2022/12/21 08:57:56;;;;;;;2.33;2.00;;;10.30;99.90;;;;;;7396450;19;20139;-74
2022/12/21 09:00:24;;;;;;;3.87;1.60;;;10.30;99.90;;;;;;7395143;19;20135;-75
2022/12/21 09:02:49;;;;;;;9.47;5.87;;;10.30;99.90;;;;;;7395466;19;20202;-73
2022/12/21 09:05:15;;;;;;;3.53;2.60;;;10.30;99.90;;;;;;7394637;19;20162;-75
2022/12/21 09:07:41;;;;;;;3.73;2.10;;;10.30;99.90;;;;;;7397196;19;20138;-76
2022/12/21 09:10:07;;;;;;;5.73;3.10;;;10.30;99.90;;;;;;7396255;19;20262;-75
2022/12/21 09:12:34;;;;;;;3.87;1.80;;;10.40;99.90;;;;;;7396342;19;20154;-74
2022/12/21 09:15:00;;;;;;;2.07;1.70;;;10.30;99.90;;;;;;7398702;19;20182;-75
2022/12/21 09:17:25;;;;;;;6.83;3.50;;;10.30;99.90;;;;;;7397716;19;20190;-74
2022/12/21 09:19:51;;;;;;;4.00;2.77;;;10.30;99.90;;;;;;7397498;19;20150;-73
2022/12/21 09:22:17;;;;;;;7.97;5.20;;;10.30;99.90;;;;;;7395865;19;20559;-75
2022/12/21 09:24:44;;;;;;;4.27;3.23;;;10.30;99.90;;;;;;7396293;19;20170;-74
2022/12/21 09:27:10;;;;;;;4.73;2.60;;;10.40;99.90;;;;;;7393632;19;20167;-75
2022/12/21 09:29:35;;;;;;;5.20;2.40;;;10.40;99.90;;;;;;7394201;19;20138;-73
2022/12/21 09:32:01;;;;;;;6.37;1.90;;;10.50;99.90;;;;;;7397001;19;20138;-75
2022/12/21 09:34:27;;;;;;;5.27;2.07;;;10.50;99.90;;;;;;7393620;19;20202;-77
2022/12/21 09:36:53;;;;;;;3.10;2.00;;;10.50;99.90;;;;;;7395991;19;20630;-76
2022/12/21 09:39:19;;;;;;;2.40;1.70;;;10.50;99.90;;;;;;7397003;19;20155;-75
2022/12/21 09:41:53;;;;;;;3.47;1.87;;;10.50;99.90;;;;;;7396859;19;20329;-77
2022/12/21 09:44:41;;;;;;;5.23;1.80;;;10.50;99.90;;;;;;7397666;19;20151;-77
2022/12/21 09:47:15;;;;;;;3.20;1.80;;;10.50;99.90;;;;;;7397596;19;20198;-73
2022/12/21 09:49:56;;;;;;;3.27;1.97;;;10.60;99.90;;;;;;7393268;19;20149;-76
2022/12/21 09:52:29;;;;;;;7.63;1.83;;;10.50;99.90;;;;;;7393166;19;20142;-74
2022/12/21 09:55:00;;;;;;;4.27;1.97;;;10.50;99.90;;;;;;7395064;19;20226;-74
2022/12/21 09:57:33;;;;;;;4.43;1.70;;;10.50;99.90;;;;;;7396678;19;20587;-74
2022/12/21 10:00:07;;;;;;;6.40;2.23;;;10.60;99.90;;;;;;7396473;19;20161;-74
2022/12/21 10:03:11;;;;;;;4.13;2.80;;;10.50;99.90;;;;;;7389167;19;20150;-75
2022/12/21 10:05:48;;;;;;;6.77;3.13;;;10.50;99.90;;;;;;7395566;19;20130;-74
2022/12/21 10:08:38;;;;;;;5.17;3.43;;;10.50;99.90;;;;;;7395561;19;20487;-75
2022/12/21 10:11:32;;;;;;;4.73;3.23;;;10.60;99.90;;;;;;7394777;19;20126;-76
2022/12/21 10:14:02;;;;;;;5.73;2.50;;;10.60;99.90;;;;;;7394845;19;20186;-75
2022/12/21 10:16:34;;;;;;;4.20;2.20;;;10.70;99.90;;;;;;7392586;19;20606;-74
2022/12/21 10:19:20;;;;;;;2.90;2.17;;;10.70;99.90;;;;;;7391422;19;20131;-75
2022/12/21 10:22:00;;;;;;;4.80;2.17;;;10.70;99.90;;;;;;7391018;19;20150;-77
2022/12/21 10:24:35;;;;;;;4.23;2.23;;;10.70;99.90;;;;;;7394781;19;20131;-75
2022/12/21 10:27:30;;;;;;;4.60;2.00;;;10.70;99.90;;;;;;7393105;19;20150;-76
2022/12/21 10:29:58;;;;;;;5.13;2.83;;;10.80;99.90;;;;;;7390603;19;20149;-75
2022/12/21 10:32:34;;;;;;;3.63;2.00;;;10.80;99.90;;;;;;7390843;19;20154;-76
2022/12/21 10:35:31;;;;;;;3.43;2.00;;;10.90;99.90;;;;;;7390422;19;20146;-75
2022/12/21 10:37:58;;;;;;;2.97;1.90;;;11.00;99.90;;;;;;7389414;19;20138;-75
2022/12/21 10:40:30;;;;;;;5.07;1.77;;;11.00;99.90;;;;;;7389941;19;20162;-76
2022/12/21 10:42:57;;;;;;;7.10;1.87;;;11.00;99.90;;;;;;7391876;19;20461;-76
2022/12/21 10:45:24;;;;;;;3.43;1.70;;;11.00;99.90;;;;;;7389822;19;20135;-74
2022/12/21 10:47:50;;;;;;;2.80;1.83;;;11.00;99.90;;;;;;7393376;19;20138;-74
2022/12/21 10:50:30;;;;;;;2.67;1.60;;;11.00;99.90;;;;;;7389938;19;20634;-75
2022/12/21 10:52:58;;;;;;;4.60;1.83;;;11.00;99.90;;;;;;7389727;19;20470;-75
2022/12/21 10:55:32;;;;;;;4.83;2.00;;;11.00;99.90;;;;;;7387308;19;20155;-75
2022/12/21 10:58:01;;;;;;;6.30;2.13;;;11.00;99.90;;;;;;7386293;19;20238;-75
2022/12/21 11:00:38;;;;;;;3.47;2.57;;;11.20;99.90;;;;;;7389967;19;20515;-74
2022/12/21 11:03:19;;;;;;;4.80;2.30;;;11.10;99.90;;;;;;7390812;19;20151;-75
2022/12/21 11:05:45;;;;;;;3.00;1.87;;;11.10;99.90;;;;;;7385998;19;20139;-75
2022/12/21 11:08:31;;;;;;;2.77;1.90;;;11.30;99.90;;;;;;7386933;19;20138;-73
2022/12/21 11:11:02;;;;;;;3.70;1.70;;;11.30;99.90;;;;;;7390535;19;20130;-74
2022/12/21 11:13:32;;;;;;;1.70;1.60;;;11.30;99.90;;;;;;7389083;19;20139;-75
2022/12/21 11:16:09;;;;;;;3.83;2.80;;;11.30;99.90;;;;;;7391431;19;20560;-73
2022/12/21 11:18:49;;;;;;;4.60;2.90;;;11.20;99.90;;;;;;7395206;19;20489;-75
2022/12/21 11:21:33;;;;;;;4.63;2.40;;;11.20;99.90;;;;;;7392922;19;20137;-75
2022/12/21 11:24:16;;;;;;;2.27;1.70;;;11.20;99.90;;;;;;7390831;19;20146;-73
2022/12/21 11:26:49;;;;;;;5.13;3.00;;;11.20;99.90;;;;;;7390089;19;20151;-76
2022/12/21 11:29:23;;;;;;;3.27;2.10;;;11.30;99.90;;;;;;7389632;19;20236;-74
2022/12/21 11:31:50;;;;;;;4.37;2.33;;;11.30;99.90;;;;;;7392142;19;20158;-74
2022/12/21 11:34:43;;;;;;;3.00;1.90;;;11.40;99.90;;;;;;7388976;19;20158;-75
2022/12/21 11:37:37;;;;;;;3.92;2.22;;;11.50;99.90;;;;;;7389460;19;20142;-75
2022/12/21 11:40:24;;;;;;;3.43;2.10;;;11.60;99.90;;;;;;7387811;19;20142;-74
2022/12/21 11:43:05;;;;;;;2.87;2.43;;;11.60;99.90;;;;;;7389004;19;20165;-76
2022/12/21 11:45:36;;;;;;;4.17;2.10;;;11.70;99.90;;;;;;7388609;19;20158;-75
2022/12/21 11:48:02;;;;;;;4.13;2.20;;;11.60;99.90;;;;;;7391868;19;20143;-73
2022/12/21 11:50:28;;;;;;;3.17;2.30;;;11.70;99.90;;;;;;7386879;19;20142;-74
2022/12/21 11:53:02;;;;;;;4.07;2.90;;;11.80;99.90;;;;;;7389250;19;20150;-73
2022/12/21 11:55:37;;;;;;;5.63;2.30;;;11.90;99.90;;;;;;7390392;19;20147;-73
2022/12/21 11:58:06;;;;;;;4.83;2.20;;;11.90;99.90;;;;;;7391622;19;20167;-72
2022/12/21 12:00:46;;;;;;;4.07;2.17;;;12.10;99.90;;;;;;7389277;19;20139;-74
2022/12/21 12:03:35;;;;;;;1.98;1.80;;;12.20;99.90;;;;;;7388401;19;20154;-74
2022/12/21 12:06:27;;;;;;;1.93;1.53;;;12.10;99.90;;;;;;7385234;19;20595;-74
2022/12/21 12:09:07;;;;;;;2.17;1.73;;;12.00;99.90;;;;;;7391701;19;20472;-74
2022/12/21 12:11:34;;;;;;;4.93;2.20;;;12.00;99.90;;;;;;7390060;19;20135;-77
2022/12/21 12:14:08;;;;;;;2.85;1.90;;;12.00;99.90;;;;;;7384245;19;20163;-76
2022/12/21 12:17:00;;;;;;;2.17;1.90;;;12.00;99.90;;;;;;7383418;19;20158;-74
2022/12/21 12:20:04;;;;;;;6.18;3.63;;;12.10;99.90;;;;;;7396905;19;20146;-75
2022/12/21 12:22:44;;;;;;;4.67;2.20;;;12.30;99.90;;;;;;7394143;19;20170;-73
2022/12/21 12:25:22;;;;;;;3.90;2.00;;;12.40;99.90;;;;;;7394275;19;20511;-74
2022/12/21 12:28:01;;;;;;;4.37;1.90;;;12.50;99.90;;;;;;7393457;19;20142;-75
2022/12/21 12:30:45;;;;;;;2.42;1.50;;;12.50;99.90;;;;;;7395017;19;20698;-73
2022/12/21 12:33:46;;;;;;;4.53;2.23;;;12.50;99.90;;;;;;7394751;19;20621;-74
2022/12/21 12:36:52;;;;;;;2.33;1.65;;;12.60;99.90;;;;;;7396591;19;20243;-75
2022/12/21 12:39:40;;;;;;;1.70;1.20;;;12.60;99.90;;;;;;7395215;19;20134;-74
2022/12/21 12:42:34;;;;;;;2.10;1.20;;;12.70;99.90;;;;;;7398900;19;20150;-73
2022/12/21 12:45:28;;;;;;;1.83;1.20;;;12.60;99.90;;;;;;7398184;19;20437;-73
2022/12/21 12:48:28;;;;;;;3.75;1.42;;;12.70;99.90;;;;;;7398975;19;20601;-75
2022/12/21 12:51:21;;;;;;;2.20;2.00;;;12.70;99.90;;;;;;7397902;19;20138;-73
2022/12/21 12:54:04;;;;;;;2.87;1.80;;;12.90;99.90;;;;;;7391578;19;20156;-73
2022/12/21 12:56:43;;;;;;;1.65;1.45;;;12.80;99.90;;;;;;7394037;19;20142;-75
2022/12/21 12:59:36;;;;;;;3.27;1.40;;;12.70;99.90;;;;;;7397493;19;20169;-75
2022/12/21 13:02:17;;;;;;;3.00;1.63;;;12.70;99.90;;;;;;7392439;19;20161;-75
2022/12/21 13:05:11;;;;;;;4.40;3.10;;;12.50;99.90;;;;;;7394352;19;20525;-75
2022/12/21 13:07:54;;;;;;;2.27;1.50;;;12.50;99.90;;;;;;7396572;19;20157;-74
2022/12/21 13:10:19;;;;;;;2.30;1.23;;;12.30;99.90;;;;;;7397508;19;20143;-76
2022/12/21 13:12:57;;;;;;;2.83;1.50;;;12.40;99.90;;;;;;7396664;19;20546;-74
2022/12/21 13:15:35;;;;;;;2.93;1.57;;;12.30;99.90;;;;;;7395562;19;20142;-75
2022/12/21 13:18:15;;;;;;;2.97;1.40;;;12.30;99.90;;;;;;7394162;19;20248;-75
2022/12/21 13:20:42;;;;;;;1.70;1.30;;;12.30;99.90;;;;;;7387978;19;20138;-75
2022/12/21 13:23:25;;;;;;;2.43;1.33;;;12.30;99.90;;;;;;7390199;19;20223;-72
2022/12/21 13:26:00;;;;;;;2.72;1.10;;;12.30;99.90;;;;;;7392102;19;20226;-74